»·PEaware :: N688NX KVNY-KSLC

N688NX :: KVNY-KSLC

FLIGHT INFORMATION

Flight Status: Arrived
Operator: Privately registered:
United States
More flights under this callsign
Pilot: Anonymous 1753 (1753)
Aircraft: CANADAIR CL-600 CHALLENGER
(CL60)
More flights by this aircraft type
Origin: KVNY Van Nuys
United States
Destination: KSLC Salt Lake City Intl
United States
More flights between these airports :: More routes between these airports
Route: HARYS4 LAS Q70 BLIPP Q842 WINEN MLF DELTA6
File this flight plan on PilotEdge
Remarks:
Altitude:
(Current/Filed)
41,000ft
Speed:
(Current/Filed)
456kts
Departed: 28-Nov-23 09:19 PM
Arrived: 28-Nov-23 10:46 PM
Distance/Time
Traveled:
502nm/1:26
Distance/Time
To Go:
Arrived

Flight Plot

Page will automatically refresh every two minutes.

Flight plan parsing failed; only flown route is shown


Map Options




Map Legend


Flown Route
Filed Route
Departure Airport
Arrival Airport
Navaid (VOR, NDB)
Fix

Horizontal Profiles

Position Reports

Time Latitude Longitude Heading Altitude Ground
Speed
28-Nov-23 20:35 34.204627 -118.491552 3 771ft 0kts
28-Nov-23 20:36 34.204627 -118.491552 3 771ft 0kts
28-Nov-23 20:37 34.204627 -118.491552 3 771ft 0kts
28-Nov-23 20:38 34.204627 -118.491552 3 771ft 0kts
28-Nov-23 20:39 34.204627 -118.491552 3 771ft 0kts
28-Nov-23 20:40 34.204627 -118.491552 3 771ft 0kts
28-Nov-23 20:41 34.204627 -118.491552 3 771ft 0kts
28-Nov-23 20:42 34.204627 -118.491552 3 771ft 0kts
28-Nov-23 20:43 34.204627 -118.491552 3 771ft 0kts
28-Nov-23 20:44 34.204627 -118.491552 3 771ft 0kts
28-Nov-23 20:45 34.204627 -118.491552 3 771ft 0kts
28-Nov-23 20:46 34.204627 -118.491552 3 771ft 0kts
28-Nov-23 20:47 34.204627 -118.491552 3 771ft 0kts
28-Nov-23 20:48 34.204627 -118.491552 3 771ft 0kts
28-Nov-23 20:49 34.204627 -118.491552 3 771ft 0kts
28-Nov-23 20:50 34.204627 -118.491552 3 771ft 0kts
28-Nov-23 20:51 34.204627 -118.491552 3 771ft 0kts
28-Nov-23 20:52 34.204627 -118.491552 3 771ft 0kts
28-Nov-23 20:53 34.204627 -118.491552 3 771ft 0kts
28-Nov-23 20:54 34.204627 -118.491552 3 771ft 0kts
28-Nov-23 20:55 34.204627 -118.491552 3 771ft 0kts
28-Nov-23 20:56 34.204627 -118.491552 3 771ft 0kts
28-Nov-23 20:57 34.204627 -118.491552 3 771ft 0kts
28-Nov-23 20:58 34.204627 -118.491552 3 771ft 0kts
28-Nov-23 20:59 34.204627 -118.491552 3 771ft 0kts
28-Nov-23 21:00 34.204627 -118.491552 3 771ft 0kts
28-Nov-23 21:01 34.204627 -118.491552 3 771ft 0kts
28-Nov-23 21:02 34.204627 -118.491552 3 771ft 0kts
28-Nov-23 21:03 34.204627 -118.491552 3 771ft 0kts
28-Nov-23 21:04 34.204627 -118.491552 3 771ft 0kts
28-Nov-23 21:05 34.204627 -118.491552 3 771ft 0kts
28-Nov-23 21:06 34.204627 -118.491552 3 771ft 0kts
28-Nov-23 21:07 34.204630 -118.491552 3 771ft 0kts
28-Nov-23 21:08 34.205337 -118.491125 354 772ft 5kts
28-Nov-23 21:09 34.207161 -118.491302 357 776ft 6kts
28-Nov-23 21:10 34.209415 -118.491478 359 781ft 9kts
28-Nov-23 21:11 34.212104 -118.491764 355 787ft 9kts
28-Nov-23 21:12 34.214320 -118.491957 342 794ft 7kts
28-Nov-23 21:13 34.216605 -118.492233 358 798ft 9kts
28-Nov-23 21:14 34.218107 -118.492307 0 801ft 6kts
28-Nov-23 21:15 34.218641 -118.492220 48 802ft 0kts
28-Nov-23 21:16 34.217574 -118.491113 173 800ft 0kts
28-Nov-23 21:17 34.216870 -118.491019 176 799ft 40kts
28-Nov-23 21:18 34.167838 -118.484688 170 3705ft 211kts
28-Nov-23 21:19 34.136975 -118.431794 86 3977ft 206kts
28-Nov-23 21:20 34.189050 -118.411691 344 6722ft 265kts
28-Nov-23 21:21 34.263407 -118.439207 348 11561ft 312kts
28-Nov-23 21:22 34.353891 -118.440384 28 15794ft 355kts
28-Nov-23 21:23 34.433484 -118.362610 38 19720ft 381kts
28-Nov-23 21:24 34.517063 -118.278594 37 23473ft 390kts
28-Nov-23 21:25 34.599558 -118.195946 37 27169ft 387kts
28-Nov-23 21:26 34.670342 -118.097382 77 29650ft 405kts
28-Nov-23 21:27 34.692996 -117.960872 85 31845ft 417kts
28-Nov-23 21:28 34.701470 -117.818240 87 33640ft 430kts
28-Nov-23 21:29 34.708239 -117.672915 89 35550ft 429kts
28-Nov-23 21:30 34.713707 -117.527513 88 37205ft 430kts
28-Nov-23 21:31 34.744413 -117.386673 72 38524ft 433kts
28-Nov-23 21:32 34.782105 -117.248362 72 39933ft 424kts
28-Nov-23 21:33 34.818506 -117.112483 72 40843ft 422kts
28-Nov-23 21:34 34.855484 -116.972801 72 40867ft 443kts
28-Nov-23 21:35 34.893806 -116.826582 72 40837ft 462kts
28-Nov-23 21:36 34.952777 -116.686143 46 40876ft 473kts
28-Nov-23 21:37 35.043050 -116.566217 45 40827ft 486kts
28-Nov-23 21:38 35.135959 -116.443120 45 40812ft 495kts
28-Nov-23 21:39 35.230361 -116.317686 46 40813ft 499kts
28-Nov-23 21:40 35.324461 -116.192241 46 40782ft 498kts
28-Nov-23 21:41 35.417856 -116.067343 46 40819ft 496kts
28-Nov-23 21:42 35.511524 -115.941661 46 40773ft 498kts
28-Nov-23 21:43 35.604871 -115.815970 46 40776ft 497kts
28-Nov-23 21:44 35.697645 -115.689260 46 40759ft 496kts
28-Nov-23 21:45 35.789984 -115.562052 46 40730ft 495kts
28-Nov-23 21:46 35.881577 -115.435362 46 40777ft 496kts
28-Nov-23 21:47 35.973429 -115.307867 47 40768ft 497kts
28-Nov-23 21:48 36.065466 -115.180150 45 40711ft 496kts
28-Nov-23 21:49 36.167352 -115.064874 39 40669ft 493kts
28-Nov-23 21:50 36.270923 -114.953352 39 40635ft 492kts
28-Nov-23 21:51 36.374199 -114.841642 39 40619ft 491kts
28-Nov-23 21:52 36.477336 -114.729657 39 40654ft 492kts
28-Nov-23 21:53 36.580782 -114.616874 39 40628ft 492kts
28-Nov-23 21:54 36.683635 -114.504551 38 40577ft 490kts
28-Nov-23 21:55 36.795423 -114.407086 29 40582ft 488kts
28-Nov-23 21:56 36.910941 -114.316769 30 40603ft 487kts
28-Nov-23 21:57 37.025982 -114.226326 30 40606ft 486kts
28-Nov-23 21:58 37.140797 -114.135643 30 40619ft 486kts
28-Nov-23 22:00 37.255505 -114.044647 30 40611ft 486kts
28-Nov-23 22:01 37.369836 -113.953559 30 40535ft 478kts
28-Nov-23 22:02 37.482901 -113.863153 30 37384ft 485kts
28-Nov-23 22:03 37.596722 -113.771776 31 35156ft 486kts
28-Nov-23 22:04 37.711581 -113.679193 31 35140ft 490kts
28-Nov-23 22:05 37.826744 -113.586017 31 35145ft 489kts
28-Nov-23 22:06 37.939959 -113.490137 36 35145ft 490kts
28-Nov-23 22:07 38.042859 -113.375793 40 35126ft 491kts
28-Nov-23 22:08 38.145080 -113.259307 41 35137ft 490kts
28-Nov-23 22:09 38.246723 -113.143100 41 35096ft 490kts
28-Nov-23 22:10 38.348536 -113.027580 36 35063ft 488kts
28-Nov-23 22:11 38.468074 -112.951505 19 35093ft 467kts
28-Nov-23 22:12 38.587576 -112.889434 19 35069ft 457kts
28-Nov-23 22:13 38.705137 -112.827430 19 35036ft 456kts
28-Nov-23 22:14 38.823266 -112.764469 20 35048ft 466kts
28-Nov-23 22:15 38.945463 -112.698787 20 34992ft 469kts
28-Nov-23 22:16 39.059056 -112.637323 19 34040ft 428kts
28-Nov-23 22:17 39.168166 -112.578163 20 32086ft 417kts
28-Nov-23 22:18 39.273334 -112.521053 20 30303ft 403kts
28-Nov-23 22:19 39.379424 -112.478644 11 28268ft 392kts
28-Nov-23 22:20 39.484341 -112.444785 11 26368ft 382kts
28-Nov-23 22:21 39.586284 -112.411075 12 24484ft 372kts
28-Nov-23 22:22 39.685840 -112.377899 12 22604ft 361kts
28-Nov-23 22:23 39.781284 -112.345980 13 21066ft 355kts
28-Nov-23 22:24 39.879002 -112.313163 13 18284ft 361kts
28-Nov-23 22:25 39.975570 -112.280648 13 17035ft 355kts
28-Nov-23 22:25 40.055648 -112.253618 13 16739ft 359kts
28-Nov-23 22:27 40.167233 -112.215818 13 15540ft 349kts
28-Nov-23 22:28 40.258915 -112.184681 13 14469ft 334kts
28-Nov-23 22:29 40.347412 -112.154566 13 13977ft 322kts
28-Nov-23 22:30 40.433062 -112.125365 13 13308ft 310kts
28-Nov-23 22:30 40.502527 -112.101697 13 12557ft 308kts
28-Nov-23 22:31 40.586318 -112.079258 359 11539ft 302kts
28-Nov-23 22:32 40.669478 -112.080559 351 10936ft 289kts
28-Nov-23 22:34 40.762459 -112.092994 353 10931ft 286kts
28-Nov-23 22:35 40.842370 -112.102600 353 10929ft 286kts
28-Nov-23 22:35 40.908190 -112.110446 353 10171ft 281kts
28-Nov-23 22:36 40.985767 -112.119783 355 8901ft 271kts
28-Nov-23 22:37 41.053980 -112.103890 65 7726ft 250kts
28-Nov-23 22:38 41.073627 -112.022184 108 7466ft 209kts
28-Nov-23 22:39 41.029525 -111.979125 151 7474ft 190kts
28-Nov-23 22:40 40.981230 -111.958292 192 7472ft 186kts
28-Nov-23 22:41 40.931752 -111.962119 180 6818ft 176kts
28-Nov-23 22:42 40.887932 -111.962147 181 5988ft 142kts
28-Nov-23 22:43 40.848773 -111.962147 181 5236ft 140kts
28-Nov-23 22:44 40.809612 -111.962043 180 4485ft 140kts
28-Nov-23 22:45 40.782473 -111.961793 106 4226ft 6kts
28-Nov-23 22:46 40.781433 -111.958540 89 4227ft 13kts
28-Nov-23 22:47 40.781363 -111.957773 260 4227ft 0kts
28-Nov-23 22:48 40.781363 -111.957773 260 4227ft 0kts
28-Nov-23 22:49 40.781363 -111.957773 260 4227ft 0kts
28-Nov-23 22:50 40.781363 -111.957773 260 4227ft 0kts
28-Nov-23 22:51 40.781363 -111.957773 260 4227ft 0kts
28-Nov-23 22:52 40.781363 -111.957773 260 4227ft 0kts
28-Nov-23 22:53 40.781363 -111.957773 260 4227ft 0kts
28-Nov-23 22:54 40.781363 -111.957773 260 4227ft 0kts
28-Nov-23 22:55 40.781363 -111.957773 260 4227ft 0kts
28-Nov-23 22:56 40.781363 -111.957773 260 4227ft 0kts
28-Nov-23 22:57 40.781363 -111.957773 260 4227ft 0kts
28-Nov-23 22:58 40.781363 -111.957773 260 4227ft 0kts
28-Nov-23 22:59 40.781363 -111.957773 260 4227ft 0kts

Navigation Log

Ident Type
Flight plan parsing failed, navigation log unavailable